createdAt,value
2022-08-04T00:02:16.666Z,65.60
2022-08-04T00:05:01.636Z,63.77
2022-08-04T00:08:22.254Z,67.27
2022-08-04T00:10:55.144Z,65.32
2022-08-04T00:13:32.753Z,66.33
2022-08-04T00:16:12.382Z,67.07
2022-08-04T00:19:01.565Z,68.41
2022-08-04T00:21:31.461Z,68.60
2022-08-04T00:24:12.201Z,70.93
2022-08-04T00:26:41.561Z,69.42
2022-08-04T00:29:09.144Z,69.99
2022-08-04T00:31:56.403Z,70.53
2022-08-04T00:34:31.472Z,74.68
2022-08-04T00:36:59.594Z,72.83
2022-08-04T00:39:27.981Z,72.93
2022-08-04T00:42:31.401Z,73.70
2022-08-04T00:46:15.743Z,75.04
2022-08-04T00:49:30.116Z,74.59
2022-08-04T00:52:33.762Z,75.94
2022-08-04T00:55:53.310Z,76.72
2022-08-04T00:58:55.460Z,78.29
2022-08-04T01:02:17.555Z,79.37
2022-08-04T01:05:43.676Z,78.44
2022-08-04T01:08:49.520Z,79.04
2022-08-04T01:12:32.313Z,79.11
2022-08-04T01:15:59.884Z,79.27
2022-08-04T01:19:23.164Z,80.11
2022-08-04T01:22:33.418Z,80.71
2022-08-04T01:25:34.213Z,81.03
2022-08-04T01:28:58.407Z,79.68
2022-08-04T01:32:20.998Z,79.55
2022-08-04T01:35:46.464Z,81.27
2022-08-04T01:38:41.025Z,79.98
2022-08-04T01:41:14.998Z,79.07
2022-08-04T01:43:46.692Z,78.35
2022-08-04T01:46:18.074Z,77.57
2022-08-04T01:48:53.603Z,76.63
2022-08-04T01:51:24.517Z,76.69
2022-08-04T01:53:51.904Z,78.01
2022-08-04T01:56:20.811Z,77.46
2022-08-04T01:58:49.388Z,79.32
2022-08-04T02:01:16.784Z,78.91
2022-08-04T02:04:19.434Z,78.96
2022-08-04T02:07:13.615Z,79.21
2022-08-04T02:10:44.478Z,80.91
2022-08-04T02:13:43.926Z,83.20
2022-08-04T02:16:52.437Z,85.84
2022-08-04T02:20:16.099Z,87.32
2022-08-04T02:23:14.513Z,88.30
2022-08-04T02:25:55.749Z,91.39
2022-08-04T02:28:48.547Z,91.30
2022-08-04T02:31:33.368Z,92.77
2022-08-04T02:34:48.820Z,93.65
2022-08-04T02:37:19.997Z,96.42
2022-08-04T02:39:53.020Z,95.95
2022-08-04T02:42:22.645Z,94.20
2022-08-04T02:44:56.912Z,96.01
2022-08-04T02:48:08.096Z,96.12
2022-08-04T02:50:28.576Z,97.57
2022-08-04T02:53:00.585Z,97.31
2022-08-04T02:55:30.491Z,97.69
2022-08-04T02:58:02.045Z,98.11
2022-08-04T03:00:30.389Z,97.23
2022-08-04T03:03:34.499Z,97.07
2022-08-04T03:06:11.384Z,96.19
2022-08-04T03:09:37.497Z,96.40
2022-08-04T03:13:05.192Z,96.43
2022-08-04T03:16:09.781Z,96.12
2022-08-04T03:19:19.587Z,95.70
2022-08-04T03:23:12.536Z,94.58
2022-08-04T03:26:26.501Z,96.54
2022-08-04T03:29:55.385Z,95.89
2022-08-04T03:32:37.346Z,95.91
2022-08-04T03:36:05.795Z,97.44
2022-08-04T03:39:58.665Z,96.83
2022-08-04T03:43:00.045Z,100.00
2022-08-04T03:46:29.724Z,100.00
2022-08-04T03:49:36.459Z,99.81
2022-08-04T03:52:58.808Z,99.32
2022-08-04T03:56:40.232Z,100.00
2022-08-04T04:00:19.635Z,100.00
2022-08-04T04:03:29.135Z,100.00
2022-08-04T04:07:11.384Z,100.00
2022-08-04T04:10:29.022Z,100.00
2022-08-04T04:13:46.154Z,100.00
2022-08-04T04:16:50.821Z,100.00
2022-08-04T04:19:47.856Z,100.00
2022-08-04T04:22:42.200Z,100.00
2022-08-04T04:25:46.893Z,100.00
2022-08-04T04:29:14.342Z,100.00
2022-08-04T04:32:18.692Z,100.00
2022-08-04T04:35:14.472Z,100.00
2022-08-04T04:38:38.197Z,100.00
2022-08-04T04:41:30.790Z,100.00
2022-08-04T04:44:56.004Z,100.00
2022-08-04T04:48:07.384Z,100.00
2022-08-04T04:51:29.509Z,100.00
2022-08-04T04:54:30.705Z,100.00
2022-08-04T04:57:17.889Z,100.00
2022-08-04T05:00:12.215Z,100.00
2022-08-04T05:03:24.022Z,100.00
2022-08-04T05:06:54.637Z,100.00
2022-08-04T05:10:29.311Z,100.00
2022-08-04T05:14:38.055Z,100.00
2022-08-04T05:17:03.188Z,100.00
2022-08-04T05:19:52.176Z,100.00
2022-08-04T05:22:56.428Z,100.00
2022-08-04T05:25:36.176Z,100.00
2022-08-04T05:28:39.625Z,100.00
2022-08-04T05:31:28.365Z,100.00
2022-08-04T05:34:20.370Z,100.00
2022-08-04T05:36:58.835Z,100.00
2022-08-04T05:39:34.618Z,100.00
2022-08-04T05:42:05.044Z,100.00
2022-08-04T05:44:36.859Z,100.00
2022-08-04T05:47:05.438Z,100.00
2022-08-04T05:49:34.733Z,100.00
2022-08-04T05:52:05.028Z,100.00
2022-08-04T05:54:34.907Z,100.00
2022-08-04T05:57:08.586Z,100.00
2022-08-04T05:59:42.806Z,100.00
2022-08-04T06:02:11.411Z,100.00
2022-08-04T06:04:45.267Z,100.00
2022-08-04T06:07:17.109Z,100.00
2022-08-04T06:09:44.914Z,100.00
2022-08-04T06:12:23.332Z,100.00
2022-08-04T06:14:55.119Z,100.00
2022-08-04T06:19:57.202Z,100.00
2022-08-04T06:20:36.387Z,100.00
2022-08-04T06:23:18.561Z,100.00
2022-08-04T06:25:56.908Z,100.00
2022-08-04T06:28:26.268Z,100.00
2022-08-04T06:30:55.419Z,100.00
2022-08-04T06:33:27.808Z,100.00
2022-08-04T06:35:58.268Z,100.00
2022-08-04T06:38:30.032Z,100.00
2022-08-04T06:40:59.160Z,100.00
2022-08-04T06:43:32.440Z,100.00
2022-08-04T06:46:10.842Z,100.00
2022-08-04T06:48:39.505Z,100.00
2022-08-04T06:51:25.333Z,100.00
2022-08-04T06:53:54.837Z,100.00
2022-08-04T06:56:25.076Z,100.00
2022-08-04T06:58:55.773Z,100.00
2022-08-04T07:01:25.731Z,99.24
2022-08-04T07:03:53.409Z,97.67
2022-08-04T07:06:25.457Z,99.00
2022-08-04T07:08:54.390Z,98.22
2022-08-04T07:11:22.236Z,97.60
2022-08-04T07:13:50.353Z,95.05
2022-08-04T07:16:20.684Z,96.81
2022-08-04T07:18:58.099Z,95.82
2022-08-04T07:21:39.486Z,93.55
2022-08-04T07:24:07.252Z,92.83
2022-08-04T07:26:34.954Z,94.58
2022-08-04T07:29:03.030Z,96.74
2022-08-04T07:31:33.736Z,94.44
2022-08-04T07:34:17.786Z,94.69
2022-08-04T07:36:57.851Z,93.29
2022-08-04T07:39:31.510Z,93.96
2022-08-04T07:42:03.569Z,90.60
2022-08-04T07:44:34.935Z,92.95
2022-08-04T07:47:08.277Z,90.42
2022-08-04T07:49:55.656Z,89.68
2022-08-04T07:52:26.233Z,86.06
2022-08-04T07:54:54.528Z,85.43
2022-08-04T07:57:40.162Z,83.56
2022-08-04T08:00:14.270Z,85.88
2022-08-04T08:02:45.723Z,84.95
2022-08-04T08:05:17.876Z,80.74
2022-08-04T08:07:54.506Z,83.53
2022-08-04T08:10:24.247Z,81.53
2022-08-04T08:12:53.703Z,82.05
2022-08-04T08:15:22.381Z,84.88
2022-08-04T08:17:59.657Z,82.82
2022-08-04T08:20:31.888Z,80.69
2022-08-04T08:23:04.384Z,81.26
2022-08-04T08:25:33.778Z,77.13
2022-08-04T08:28:05.192Z,75.86
2022-08-04T08:30:34.686Z,74.37
2022-08-04T08:33:09.449Z,65.26
2022-08-04T08:36:19.835Z,63.53
2022-08-04T08:39:34.835Z,62.35
2022-08-04T08:44:06.034Z,61.70
2022-08-04T08:47:58.512Z,60.21
2022-08-04T08:51:20.231Z,57.64
2022-08-04T08:55:17.984Z,59.18
2022-08-04T08:58:32.470Z,55.38
2022-08-04T09:02:12.429Z,54.88
2022-08-04T09:05:27.129Z,53.19
2022-08-04T09:08:56.189Z,52.39
2022-08-04T09:11:35.149Z,52.65
2022-08-04T09:14:50.310Z,51.49
2022-08-04T09:18:22.655Z,48.15
2022-08-04T09:21:32.190Z,48.48
2022-08-04T09:24:36.240Z,51.28
2022-08-04T09:27:20.741Z,48.89
2022-08-04T09:30:10.455Z,46.78
2022-08-04T09:33:45.006Z,45.29
2022-08-04T09:36:53.594Z,45.00
2022-08-04T09:40:55.153Z,43.32
2022-08-04T09:44:52.475Z,43.63
2022-08-04T09:47:40.354Z,45.46
2022-08-04T09:50:40.022Z,45.27
2022-08-04T09:53:53.769Z,47.44
2022-08-04T09:56:57.189Z,43.69
2022-08-04T10:00:11.253Z,42.10
2022-08-04T10:02:56.400Z,39.91
2022-08-04T10:06:19.350Z,40.78
2022-08-04T10:09:46.405Z,41.09
2022-08-04T10:12:25.214Z,38.99
2022-08-04T10:15:11.653Z,39.90
2022-08-04T10:18:18.352Z,39.47
2022-08-04T10:21:58.988Z,40.44
2022-08-04T10:25:02.225Z,38.71
2022-08-04T10:27:43.421Z,37.00
2022-08-04T10:30:14.688Z,36.74
2022-08-04T10:33:23.609Z,37.51
2022-08-04T10:36:10.730Z,36.37
2022-08-04T10:39:43.378Z,36.38
2022-08-04T10:42:30.759Z,35.75
2022-08-04T10:45:46.848Z,35.36
2022-08-04T10:48:55.468Z,35.12
2022-08-04T10:51:58.004Z,35.04
2022-08-04T10:55:16.020Z,33.42
2022-08-04T10:58:01.013Z,33.87
2022-08-04T11:00:35.729Z,34.01
2022-08-04T11:03:40.809Z,32.06
2022-08-04T11:06:09.844Z,32.51
2022-08-04T11:08:50.597Z,32.43
2022-08-04T11:12:01.691Z,32.64
2022-08-04T11:15:07.703Z,32.05
2022-08-04T11:17:49.518Z,31.61
2022-08-04T11:20:37.015Z,31.86
2022-08-04T11:23:14.131Z,30.00
2022-08-04T11:26:29.165Z,28.28
2022-08-04T11:29:40.618Z,28.76
2022-08-04T11:32:37.657Z,28.72
2022-08-04T11:35:27.885Z,27.92
2022-08-04T11:39:11.363Z,27.99
2022-08-04T11:42:07.929Z,28.83
2022-08-04T11:45:11.208Z,27.26
2022-08-04T11:48:33.718Z,27.59
2022-08-04T11:51:06.858Z,27.02
2022-08-04T11:53:40.699Z,28.68
2022-08-04T11:56:36.680Z,27.71
2022-08-04T11:59:05.867Z,27.61
2022-08-04T12:02:16.694Z,27.49
2022-08-04T12:05:06.181Z,26.70
2022-08-04T12:08:00.128Z,26.67
2022-08-04T12:11:14.420Z,26.55
2022-08-04T12:14:15.384Z,26.31
2022-08-04T12:17:04.805Z,25.81
2022-08-04T12:20:05.141Z,26.23
2022-08-04T12:22:52.734Z,25.34
2022-08-04T12:25:44.904Z,25.40
2022-08-04T12:29:06.883Z,25.85
2022-08-04T12:31:56.884Z,25.32
2022-08-04T12:35:31.981Z,25.30
2022-08-04T12:38:14.444Z,24.88
2022-08-04T12:40:51.936Z,24.58
2022-08-04T12:43:43.019Z,24.42
2022-08-04T12:46:31.421Z,25.20
2022-08-04T12:49:04.571Z,25.40
2022-08-04T12:52:07.779Z,24.68
2022-08-04T12:54:32.196Z,24.58
2022-08-04T12:57:01.361Z,23.80
2022-08-04T12:59:28.881Z,23.49
2022-08-04T13:02:10.616Z,23.41
2022-08-04T13:04:42.701Z,23.91
2022-08-04T13:07:25.501Z,22.07
2022-08-04T13:09:54.293Z,23.05
2022-08-04T13:12:32.355Z,22.46
2022-08-04T13:15:18.714Z,21.95
2022-08-04T13:18:14.824Z,22.70
2022-08-04T13:20:44.849Z,22.28
2022-08-04T13:23:21.514Z,23.11
2022-08-04T13:26:43.533Z,21.84
2022-08-04T13:28:49.724Z,21.01
2022-08-04T13:31:24.621Z,20.30
2022-08-04T13:34:02.793Z,21.37
2022-08-04T13:36:32.742Z,20.64
2022-08-04T13:39:21.821Z,18.52
2022-08-04T13:41:58.922Z,18.02
2022-08-04T13:44:37.177Z,18.38
2022-08-04T13:47:21.568Z,18.87
2022-08-04T13:50:15.830Z,18.68
2022-08-04T13:52:46.345Z,19.22
2022-08-04T13:55:37.265Z,18.59
2022-08-04T13:58:20.378Z,19.78
2022-08-04T14:01:00.541Z,18.87
2022-08-04T14:03:55.805Z,19.00
2022-08-04T14:06:44.861Z,18.81
2022-08-04T14:09:34.933Z,18.96
2022-08-04T14:12:38.086Z,19.44
2022-08-04T14:15:02.426Z,18.75
2022-08-04T14:17:30.784Z,20.03
2022-08-04T14:20:04.472Z,19.74
2022-08-04T14:22:36.964Z,18.85
2022-08-04T14:25:17.838Z,18.44
2022-08-04T14:27:56.609Z,18.81
2022-08-04T14:30:37.895Z,19.68
2022-08-04T14:34:02.510Z,18.86
2022-08-04T14:36:01.633Z,18.49
2022-08-04T14:38:58.389Z,18.94
2022-08-04T14:41:44.598Z,19.29
2022-08-04T14:44:11.936Z,18.94
2022-08-04T14:46:59.188Z,18.65
2022-08-04T14:49:27.600Z,19.66
2022-08-04T14:52:03.043Z,18.73
2022-08-04T14:54:35.309Z,19.92
2022-08-04T14:57:07.585Z,18.90
2022-08-04T15:00:01.664Z,19.18
2022-08-04T15:02:30.878Z,18.90
2022-08-04T15:04:59.212Z,18.26
2022-08-04T15:07:47.523Z,18.11
2022-08-04T15:10:15.690Z,18.21
2022-08-04T15:12:43.329Z,18.14
2022-08-04T15:15:36.035Z,18.20
2022-08-04T15:18:03.686Z,18.67
2022-08-04T15:20:32.556Z,18.22
2022-08-04T15:23:01.365Z,18.61
2022-08-04T15:25:32.929Z,18.95
2022-08-04T15:28:01.695Z,18.63
2022-08-04T15:30:30.667Z,18.87
2022-08-04T15:33:03.033Z,19.61
2022-08-04T15:35:38.708Z,19.08
2022-08-04T15:38:37.392Z,18.97
2022-08-04T15:41:22.455Z,18.96
2022-08-04T15:44:51.280Z,19.99
2022-08-04T15:47:19.074Z,18.78
2022-08-04T15:50:02.072Z,18.90
2022-08-04T15:52:32.036Z,18.47
2022-08-04T15:55:41.326Z,19.72
2022-08-04T15:58:17.123Z,19.64
2022-08-04T16:01:05.022Z,18.50
2022-08-04T16:03:57.999Z,18.62
2022-08-04T16:06:28.802Z,18.71
2022-08-04T16:09:05.293Z,18.94
2022-08-04T16:11:33.892Z,18.93
2022-08-04T16:14:01.412Z,18.90
2022-08-04T16:16:38.428Z,19.31
2022-08-04T16:19:39.581Z,19.00
2022-08-04T16:22:09.921Z,20.15
2022-08-04T16:24:42.767Z,18.97
2022-08-04T16:27:13.752Z,19.00
2022-08-04T16:29:49.461Z,19.70
2022-08-04T16:32:24.381Z,19.58
2022-08-04T16:35:17.869Z,19.29
2022-08-04T16:37:45.373Z,19.94
2022-08-04T16:40:43.552Z,19.82
2022-08-04T16:43:21.029Z,19.33
2022-08-04T16:45:53.893Z,19.08
2022-08-04T16:48:32.589Z,19.78
2022-08-04T16:51:14.423Z,19.93
2022-08-04T16:54:02.899Z,19.99
2022-08-04T16:56:35.327Z,20.40
2022-08-04T16:59:13.177Z,20.27
2022-08-04T17:01:50.822Z,20.57
2022-08-04T17:04:18.420Z,20.06
2022-08-04T17:06:46.809Z,20.15
2022-08-04T17:09:19.583Z,20.29
2022-08-04T17:11:48.483Z,20.36
2022-08-04T17:14:30.360Z,21.48
2022-08-04T17:17:02.164Z,20.77
2022-08-04T17:19:29.615Z,21.49
2022-08-04T17:22:07.236Z,20.68
2022-08-04T17:24:40.929Z,20.17
2022-08-04T17:28:09.679Z,20.66
2022-08-04T17:29:57.641Z,20.87
2022-08-04T17:32:25.373Z,20.45
2022-08-04T17:35:04.076Z,20.90
2022-08-04T17:37:39.315Z,20.30
2022-08-04T17:40:18.689Z,20.93
2022-08-04T17:43:03.188Z,20.57
2022-08-04T17:46:36.941Z,21.08
2022-08-04T17:49:17.909Z,21.14
2022-08-04T17:52:09.979Z,22.17
2022-08-04T17:54:43.290Z,22.12
2022-08-04T17:57:22.082Z,22.97
2022-08-04T17:59:59.329Z,23.51
2022-08-04T18:02:34.769Z,23.61
2022-08-04T18:05:11.328Z,23.74
2022-08-04T18:08:38.951Z,23.41
2022-08-04T18:10:52.302Z,24.35
2022-08-04T18:13:28.768Z,24.95
2022-08-04T18:16:14.583Z,24.84
2022-08-04T18:19:15.338Z,25.15
2022-08-04T18:22:00.457Z,24.69
2022-08-04T18:24:35.004Z,25.55
2022-08-04T18:27:06.208Z,27.07
2022-08-04T18:29:39.041Z,27.08
2022-08-04T18:32:09.730Z,27.31
2022-08-04T18:34:40.781Z,27.10
2022-08-04T18:37:40.804Z,27.47
2022-08-04T18:40:26.801Z,28.07
2022-08-04T18:42:59.988Z,26.93
2022-08-04T18:45:34.493Z,23.24
2022-08-04T18:48:14.539Z,21.23
2022-08-04T18:51:10.419Z,19.68
2022-08-04T18:53:35.090Z,19.26
2022-08-04T18:56:19.890Z,19.91
2022-08-04T18:58:54.348Z,19.56
2022-08-04T19:01:21.744Z,19.36
2022-08-04T19:03:58.099Z,19.60
2022-08-04T19:06:25.889Z,20.14
2022-08-04T19:08:53.665Z,20.34
2022-08-04T19:14:13.149Z,19.95
2022-08-04T19:16:46.017Z,20.10
2022-08-04T19:19:17.249Z,21.67
2022-08-04T19:24:34.553Z,31.54
2022-08-04T19:27:08.261Z,32.44
2022-08-04T19:29:40.636Z,36.60
2022-08-04T19:32:15.089Z,42.16
2022-08-04T19:34:48.409Z,42.06
2022-08-04T19:38:01.825Z,36.51
2022-08-04T19:40:12.309Z,30.55
2022-08-04T19:42:42.324Z,28.94
2022-08-04T19:45:15.973Z,28.72
2022-08-04T19:48:17.257Z,29.17
2022-08-04T19:50:33.716Z,28.44
2022-08-04T19:53:01.150Z,39.34
2022-08-04T19:55:37.205Z,31.06
2022-08-04T19:58:08.962Z,30.94
2022-08-04T20:00:39.408Z,30.33
2022-08-04T20:05:57.481Z,31.29
2022-08-04T20:08:29.912Z,30.92
2022-08-04T20:10:58.185Z,31.14
2022-08-04T20:13:37.427Z,31.22
2022-08-04T20:16:14.916Z,31.16
2022-08-04T20:18:59.525Z,33.06
2022-08-04T20:21:54.094Z,31.64
2022-08-04T20:24:39.861Z,31.57
2022-08-04T20:27:21.729Z,32.46
2022-08-04T20:29:55.591Z,32.27
2022-08-04T20:32:26.817Z,32.26
2022-08-04T20:34:57.573Z,36.27
2022-08-04T20:37:55.401Z,40.01
2022-08-04T20:40:15.369Z,34.20
2022-08-04T20:42:45.437Z,41.45
2022-08-04T20:45:16.478Z,43.53
2022-08-04T20:47:53.261Z,36.52
2022-08-04T20:50:28.392Z,34.87
2022-08-04T20:52:59.015Z,35.76
2022-08-04T20:55:29.501Z,34.61
2022-08-04T20:58:03.002Z,48.42
2022-08-04T21:00:32.036Z,43.20
2022-08-04T21:02:59.971Z,59.66
2022-08-04T21:05:28.341Z,62.77
2022-08-04T21:07:59.193Z,38.73
2022-08-04T21:10:28.069Z,52.66
2022-08-04T21:12:55.640Z,55.68
2022-08-04T21:15:58.381Z,43.96
2022-08-04T21:18:16.837Z,56.10
2022-08-04T21:20:44.583Z,54.59
2022-08-04T21:23:15.588Z,56.69
2022-08-04T21:25:43.519Z,48.99
2022-08-04T21:28:12.516Z,49.08
2022-08-04T21:30:52.931Z,44.87
2022-08-04T21:33:50.238Z,49.57
2022-08-04T21:36:13.904Z,45.79
2022-08-04T21:41:32.877Z,56.22
2022-08-04T21:44:00.718Z,44.50
2022-08-04T21:46:29.965Z,45.80
2022-08-04T21:48:58.364Z,51.12
2022-08-04T21:51:59.018Z,51.47
2022-08-04T21:54:21.313Z,42.79
2022-08-04T21:56:52.259Z,40.59
2022-08-04T21:59:23.729Z,42.99
2022-08-04T22:02:01.227Z,44.28
2022-08-04T22:04:30.930Z,43.71
2022-08-04T22:06:58.469Z,43.84
2022-08-04T22:09:38.752Z,43.22
2022-08-04T22:12:11.765Z,46.76
2022-08-04T22:14:40.273Z,45.61
2022-08-04T22:17:13.630Z,44.39
2022-08-04T22:19:55.840Z,46.85
2022-08-04T22:22:28.967Z,46.04
2022-08-04T22:25:12.345Z,46.31
2022-08-04T22:28:01.016Z,47.92
2022-08-04T22:30:37.699Z,48.85
2022-08-04T22:33:08.822Z,48.75
2022-08-04T22:35:49.054Z,49.81
2022-08-04T22:38:32.752Z,48.37
2022-08-04T22:41:13.642Z,48.51
2022-08-04T22:43:43.537Z,50.58
2022-08-04T22:46:24.725Z,49.85
2022-08-04T22:48:53.444Z,50.09
2022-08-04T22:51:22.992Z,47.45
2022-08-04T22:53:52.986Z,51.57
2022-08-04T22:56:37.394Z,49.98
2022-08-04T22:59:10.279Z,50.26
2022-08-04T23:01:59.584Z,51.75
2022-08-04T23:04:33.194Z,51.19
2022-08-04T23:07:09.238Z,52.64
2022-08-04T23:09:50.122Z,50.87
2022-08-04T23:12:26.229Z,49.16
2022-08-04T23:14:58.707Z,51.46
2022-08-04T23:17:28.574Z,51.24
2022-08-04T23:19:59.609Z,54.72
2022-08-04T23:22:41.271Z,54.30
2022-08-04T23:25:15.530Z,54.91
2022-08-04T23:27:50.549Z,55.07
2022-08-04T23:30:29.833Z,53.10
2022-08-04T23:32:58.467Z,53.34
2022-08-04T23:35:26.363Z,52.61
2022-08-04T23:37:56.037Z,52.07
2022-08-04T23:40:33.727Z,54.04
2022-08-04T23:43:12.200Z,54.11
2022-08-04T23:46:03.856Z,57.41
2022-08-04T23:48:38.881Z,57.54
2022-08-04T23:51:14.260Z,53.21
2022-08-04T23:54:02.335Z,52.91
2022-08-04T23:56:34.589Z,51.04
2022-08-04T23:59:04.240Z,54.88
